Time;durP1;ratioP1;P1;durP2;ratioP2;P2;SDS_P1;SDS_P2;PMS_P1;PMS_P2;Temp;Humidity;BMP_temperature;BMP_pressure;BME280_temperature;BME280_humidity;BME280_pressure;Samples;Min_cycle;Max_cycle;Signal;HPM_P1;HPM_P2
2022/08/21 00:00:38;;;;;;;6.57;3.13;;;;;;;14.72;87.58;101810.28;5109606;28;20031;-77
2022/08/21 00:03:07;;;;;;;8.90;4.18;;;;;;;14.72;87.23;101810.28;5091925;28;20115;-77
2022/08/21 00:05:37;;;;;;;8.65;4.53;;;;;;;14.67;87.83;101812.78;5092246;28;20038;-77
2022/08/21 00:08:03;;;;;;;11.55;5.30;;;;;;;14.70;88.83;101804.09;5110307;28;20086;-77
2022/08/21 00:10:28;;;;;;;12.50;5.25;;;;;;;14.73;88.95;101807.31;5109277;28;20059;-77
2022/08/21 00:12:54;;;;;;;10.77;4.53;;;;;;;14.69;88.42;101810.69;5088568;28;20062;-77
2022/08/21 00:15:26;;;;;;;11.67;4.33;;;;;;;14.64;89.05;101807.66;5111562;28;20084;-78
2022/08/21 00:17:52;;;;;;;8.80;3.85;;;;;;;14.58;88.52;101797.44;5089196;28;20026;-78
2022/08/21 00:20:18;;;;;;;11.30;4.40;;;;;;;14.63;89.09;101800.44;5089233;28;20399;-77
2022/08/21 00:22:44;;;;;;;13.13;4.20;;;;;;;14.57;88.36;101796.56;5109888;28;20107;-77
2022/08/21 00:25:10;;;;;;;7.53;3.67;;;;;;;14.58;89.06;101806.53;5088951;28;20114;-77
2022/08/21 00:27:36;;;;;;;15.30;4.70;;;;;;;14.59;89.18;101796.38;5113717;28;20321;-77
2022/08/21 00:30:03;;;;;;;5.37;3.47;;;;;;;14.60;88.93;101800.84;5093754;28;20052;-77
2022/08/21 00:32:29;;;;;;;7.85;3.25;;;;;;;14.56;88.83;101796.81;5104654;28;20032;-78
2022/08/21 00:34:54;;;;;;;16.17;4.70;;;;;;;14.55;89.50;101795.06;5087629;28;20032;-77
2022/08/21 00:37:20;;;;;;;11.43;3.67;;;;;;;14.56;88.82;101794.03;5111547;28;20118;-77
2022/08/21 00:39:46;;;;;;;8.40;3.77;;;;;;;14.56;89.02;101794.03;5109902;28;20036;-77
2022/08/21 00:42:15;;;;;;;9.73;3.55;;;;;;;14.52;89.22;101792.72;5089916;28;20036;-77
2022/08/21 00:44:43;;;;;;;6.38;3.25;;;;;;;14.54;88.18;101787.84;5089250;28;20030;-77
2022/08/21 00:47:09;;;;;;;10.57;3.08;;;;;;;14.56;88.59;101791.28;5089837;28;20047;-77
2022/08/21 00:49:34;;;;;;;7.43;3.23;;;;;;;14.51;89.02;101791.03;5108205;28;20449;-77
2022/08/21 00:52:00;;;;;;;9.57;2.80;;;;;;;14.49;87.91;101793.13;5097000;28;20473;-77
2022/08/21 00:54:29;;;;;;;8.82;3.40;;;;;;;14.49;89.04;101787.59;5086486;28;20020;-77
2022/08/21 00:57:00;;;;;;;9.57;3.50;;;;;;;14.44;89.58;101796.47;5088094;28;20035;-77
2022/08/21 00:59:26;;;;;;;11.35;3.90;;;;;;;14.46;89.20;101799.03;5108242;28;20027;-77
2022/08/21 01:01:52;;;;;;;5.57;2.80;;;;;;;14.45;89.53;101786.28;5109802;28;20085;-77
2022/08/21 01:04:18;;;;;;;9.90;3.17;;;;;;;14.47;89.42;101789.72;5091170;28;20139;-77
2022/08/21 01:06:44;;;;;;;6.63;3.50;;;;;;;14.43;89.58;101788.41;5091738;28;20023;-76
2022/08/21 01:09:09;;;;;;;7.57;2.50;;;;;;;14.45;89.28;101791.81;5088405;28;20031;-76
2022/08/21 01:11:35;;;;;;;8.60;3.83;;;;;;;14.42;89.56;101797.72;5105643;28;20450;-75
2022/08/21 01:14:01;;;;;;;7.60;3.05;;;;;;;14.41;89.33;101793.28;5092914;28;20383;-77
2022/08/21 01:16:28;;;;;;;9.93;2.55;;;;;;;14.35;89.13;101786.63;5091591;28;20576;-76
2022/08/21 01:18:53;;;;;;;8.77;2.50;;;;;;;14.36;89.17;101791.09;5106870;28;20098;-76
2022/08/21 01:21:22;;;;;;;10.80;2.90;;;;;;;14.33;89.71;101783.25;5110736;28;20115;-77
2022/08/21 01:23:51;;;;;;;7.72;2.75;;;;;;;14.32;89.67;101788.94;5094610;28;20402;-76
2022/08/21 01:26:19;;;;;;;8.05;3.17;;;;;;;14.28;88.91;101798.66;5092396;28;20081;-76
2022/08/21 01:28:56;;;;;;;10.73;2.83;;;;;;;14.30;90.65;101791.91;5090514;28;20023;-76
2022/08/21 01:31:24;;;;;;;8.52;2.80;;;;;;;14.29;89.68;101794.84;5090484;28;20118;-76
2022/08/21 01:33:51;;;;;;;8.77;3.03;;;;;;;14.24;88.42;101789.94;5109342;28;20359;-76
2022/08/21 01:36:18;;;;;;;8.88;2.40;;;;;;;14.28;90.13;101794.00;5092241;28;20131;-77
2022/08/21 01:38:43;;;;;;;15.43;3.15;;;;;;;14.24;89.20;101789.94;5109947;28;20024;-76
2022/08/21 01:41:09;;;;;;;11.63;2.67;;;;;;;14.23;90.36;101790.13;5110105;28;20090;-78
2022/08/21 01:43:34;;;;;;;8.53;2.80;;;;;;;14.24;89.89;101789.94;5108231;28;21540;-75
2022/08/21 01:45:59;;;;;;;8.70;3.40;;;;;;;14.16;89.14;101781.78;5097859;28;20107;-77
2022/08/21 01:48:25;;;;;;;11.47;2.97;;;;;;;14.20;89.68;101785.84;5098150;28;20429;-76
2022/08/21 01:50:50;;;;;;;7.47;2.33;;;;;;;14.19;89.79;101780.53;5110675;28;20030;-76
2022/08/21 01:53:15;;;;;;;9.53;2.73;;;;;;;14.18;89.74;101787.06;5090803;28;20030;-77
2022/08/21 01:55:42;;;;;;;5.87;2.50;;;;;;;14.14;89.86;101788.53;5107934;28;20038;-75
2022/08/21 01:58:07;;;;;;;6.57;2.08;;;;;;;14.10;89.51;101778.97;5104535;28;20027;-77
2022/08/21 02:00:33;;;;;;;7.37;2.57;;;;;;;14.06;89.98;101775.75;5106100;28;20032;-75
2022/08/21 02:02:59;;;;;;;7.40;2.27;;;;;;;14.10;90.04;101773.44;5108038;28;20042;-77
2022/08/21 02:05:24;;;;;;;8.17;1.97;;;;;;;14.08;89.96;101768.13;5108880;28;20043;-77
2022/08/21 02:07:52;;;;;;;6.07;2.80;;;;;;;14.10;90.05;101765.19;5110951;28;20036;-76
2022/08/21 02:10:26;;;;;;;9.70;3.20;;;;;;;13.98;89.51;101761.25;5106576;28;20023;-77
2022/08/21 02:12:52;;;;;;;8.85;2.25;;;;;;;14.00;89.95;101767.41;5106592;28;20043;-76
2022/08/21 02:15:18;;;;;;;5.97;1.83;;;;;;;13.95;89.88;101761.63;5108732;28;20039;-77
2022/08/21 02:17:47;;;;;;;10.32;2.50;;;;;;;13.92;90.48;101762.88;5106375;28;20677;-76
2022/08/21 02:20:22;;;;;;;10.07;2.42;;;;;;;13.96;90.48;101757.81;5109967;28;20114;-80
2022/08/21 02:22:47;;;;;;;8.07;2.53;;;;;;;13.95;90.92;101757.00;5104181;28;20083;-79
2022/08/21 02:25:12;;;;;;;10.17;2.77;;;;;;;13.90;90.58;101762.25;5093466;28;20065;-77
2022/08/21 02:27:40;;;;;;;7.50;2.07;;;;;;;13.87;90.51;101748.00;5093407;28;20117;-77
2022/08/21 02:30:06;;;;;;;10.38;2.50;;;;;;;13.94;90.66;101758.03;5089833;28;20486;-76
2022/08/21 02:32:31;;;;;;;8.48;2.47;;;;;;;13.90;90.79;101756.72;5110451;28;20090;-76
2022/08/21 02:34:57;;;;;;;9.53;3.03;;;;;;;13.88;90.82;101757.97;5089693;28;20023;-76
2022/08/21 02:37:23;;;;;;;6.90;2.53;;;;;;;13.85;91.04;101761.97;5107847;28;20048;-77
2022/08/21 02:39:49;;;;;;;9.75;2.40;;;;;;;13.78;90.82;101765.69;5109915;28;20039;-78
2022/08/21 02:42:14;;;;;;;7.45;2.75;;;;;;;13.77;90.56;101762.09;5089015;28;20938;-77
2022/08/21 02:44:40;;;;;;;6.60;2.60;;;;;;;13.75;90.87;101760.56;5104462;28;20035;-76
2022/08/21 02:47:05;;;;;;;13.17;3.10;;;;;;;13.72;90.79;101756.31;5107049;28;20386;-76
2022/08/21 02:49:30;;;;;;;5.77;3.07;;;;;;;13.67;91.10;101755.22;5090772;28;20222;-75
2022/08/21 02:51:56;;;;;;;6.93;2.57;;;;;;;13.69;90.72;101764.09;5107057;28;20034;-77
2022/08/21 02:54:21;;;;;;;6.03;2.43;;;;;;;13.69;90.82;101756.72;5102535;28;20036;-77
2022/08/21 02:56:46;;;;;;;10.67;2.40;;;;;;;13.66;90.63;101748.84;5088827;28;20057;-76
2022/08/21 02:59:12;;;;;;;7.23;2.73;;;;;;;13.64;91.23;101750.06;5093277;28;20138;-77
2022/08/21 03:01:37;;;;;;;10.80;2.40;;;;;;;13.62;91.93;101752.19;5108017;28;20041;-77
2022/08/21 03:04:03;;;;;;;9.10;2.60;;;;;;;13.65;91.65;101757.28;5084427;28;20019;-76
2022/08/21 03:06:29;;;;;;;6.57;2.67;;;;;;;13.68;91.79;101754.16;5104464;28;20092;-77
2022/08/21 03:08:54;;;;;;;6.27;2.83;;;;;;;13.68;91.93;101754.16;5107072;28;20028;-76
2022/08/21 03:11:20;;;;;;;10.80;2.93;;;;;;;13.62;91.18;101746.69;5109463;28;20276;-77
2022/08/21 03:13:45;;;;;;;9.63;3.20;;;;;;;13.60;91.82;101746.03;5108548;28;20069;-77
2022/08/21 03:16:11;;;;;;;6.77;3.03;;;;;;;13.59;91.84;101747.06;5086561;28;20027;-77
2022/08/21 03:18:37;;;;;;;9.60;3.07;;;;;;;13.61;92.48;101740.31;5086590;28;20612;-77
2022/08/21 03:21:03;;;;;;;11.20;3.33;;;;;;;13.54;91.95;101741.28;5090766;28;20046;-76
2022/08/21 03:23:30;;;;;;;7.45;3.17;;;;;;;13.58;92.48;101734.34;5108023;28;20027;-77
2022/08/21 03:25:55;;;;;;;;;;;;;;;13.59;92.64;101733.28;5089822;28;20500;-77
2022/08/21 03:28:21;;;;;;;7.53;3.38;;;;;;;13.60;92.22;101729.50;5106731;28;20015;-77
2022/08/21 03:30:49;;;;;;;9.63;3.47;;;;;;;13.57;91.88;101732.63;5090882;28;20078;-76
2022/08/21 03:33:15;;;;;;;8.02;3.30;;;;;;;13.54;92.04;101730.25;5103080;28;20034;-77
2022/08/21 03:35:42;;;;;;;12.17;3.30;;;;;;;13.51;91.04;101719.66;5088620;28;20035;-77
2022/08/21 03:38:07;;;;;;;12.48;4.05;;;;;;;13.47;92.38;101713.69;5093019;28;20027;-76
2022/08/21 03:40:33;;;;;;;9.57;3.57;;;;;;;13.45;92.99;101720.44;5108377;28;20093;-77
2022/08/21 03:42:58;;;;;;;9.30;3.43;;;;;;;13.46;92.43;101717.47;5108549;28;20067;-77
2022/08/21 03:45:24;;;;;;;12.43;3.67;;;;;;;13.43;92.60;101720.63;5088589;28;20486;-78
2022/08/21 03:47:56;;;;;;;8.63;3.70;;;;;;;13.40;92.75;101718.25;5087431;28;20023;-76
2022/08/21 03:50:24;;;;;;;12.77;4.25;;;;;;;13.43;92.81;101714.25;5108989;28;20065;-77
2022/08/21 03:52:49;;;;;;;10.15;3.60;;;;;;;13.42;91.45;101718.94;5089225;28;20032;-78
2022/08/21 03:55:14;;;;;;;7.17;4.23;;;;;;;13.47;93.41;101715.59;5109217;28;20031;-77
2022/08/21 03:57:40;;;;;;;11.77;4.83;;;;;;;13.53;93.38;101723.06;5104487;28;20108;-77
2022/08/21 04:00:08;;;;;;;6.70;4.47;;;;;;;13.61;92.64;101717.44;5090606;28;20047;-77
2022/08/21 04:02:33;;;;;;;13.43;4.47;;;;;;;13.65;93.05;101714.09;5089550;28;20618;-77
2022/08/21 04:04:59;;;;;;;7.73;4.30;;;;;;;13.70;93.51;101724.50;5088682;28;20032;-77
2022/08/21 04:07:24;;;;;;;10.93;4.50;;;;;;;13.69;93.48;101720.91;5112190;28;20858;-77
2022/08/21 04:09:50;;;;;;;12.57;4.67;;;;;;;13.82;93.94;101720.22;5111922;28;20065;-76
2022/08/21 04:12:15;;;;;;;21.23;4.83;;;;;;;13.85;93.31;101720.66;5101150;28;20065;-77
2022/08/21 04:14:41;;;;;;;20.87;5.20;;;;;;;13.83;92.72;101730.16;5110416;28;20110;-78
2022/08/21 04:17:06;;;;;;;13.90;4.67;;;;;;;13.89;93.20;101734.88;5111117;28;20134;-78
2022/08/21 04:19:32;;;;;;;17.97;5.27;;;;;;;13.92;93.00;101740.00;5113554;28;20035;-76
2022/08/21 04:21:57;;;;;;;13.90;4.17;;;;;;;13.91;92.77;101732.78;5110388;28;20031;-77
2022/08/21 04:24:23;;;;;;;13.77;4.33;;;;;;;14.06;93.27;101725.28;5092959;28;20178;-76
2022/08/21 04:26:48;;;;;;;15.47;4.87;;;;;;;14.08;93.27;101729.56;5099273;28;20063;-77
2022/08/21 04:29:13;;;;;;;14.80;4.50;;;;;;;14.14;93.21;101723.25;5108341;28;20102;-79
2022/08/21 04:31:39;;;;;;;21.07;5.17;;;;;;;14.23;92.57;101730.34;5107167;28;20039;-77
2022/08/21 04:34:04;;;;;;;14.20;4.43;;;;;;;14.20;92.53;101730.75;5094033;28;20044;-76
2022/08/21 04:36:31;;;;;;;14.10;4.60;;;;;;;14.39;92.27;101734.72;5091816;28;20076;-76
2022/08/21 04:38:57;;;;;;;13.88;4.65;;;;;;;14.37;92.83;101742.34;5091147;28;20051;-76
2022/08/21 04:41:22;;;;;;;13.13;4.45;;;;;;;14.44;92.09;101740.47;5111998;28;20036;-77
2022/08/21 04:43:48;;;;;;;15.50;5.50;;;;;;;14.55;91.88;101742.69;5111428;28;20375;-77
2022/08/21 04:46:13;;;;;;;18.23;3.90;;;;;;;14.49;92.14;101743.50;5092401;28;20114;-77
2022/08/21 04:48:38;;;;;;;17.73;4.90;;;;;;;14.59;92.22;101750.38;5109551;28;20046;-77
2022/08/21 04:51:19;;;;;;;17.93;5.17;;;;;;;14.65;91.72;101749.56;5110764;28;20506;-77
2022/08/21 04:53:52;;;;;;;18.20;4.82;;;;;;;14.70;91.44;101741.53;5089526;28;20030;-76
2022/08/21 04:56:24;;;;;;;16.48;4.30;;;;;;;14.70;91.01;101743.44;5103111;28;20038;-78
2022/08/21 04:58:52;;;;;;;16.02;4.18;;;;;;;14.71;91.27;101742.38;5086573;28;20061;-77
2022/08/21 05:01:21;;;;;;;17.55;4.50;;;;;;;14.79;91.27;101751.34;5091786;28;20035;-77
2022/08/21 05:03:50;;;;;;;15.32;4.30;;;;;;;14.81;90.87;101753.91;5093884;28;20020;-78
2022/08/21 05:06:16;;;;;;;12.38;4.35;;;;;;;14.81;91.17;101751.13;5081280;28;20051;-77
2022/08/21 05:08:45;;;;;;;18.63;4.85;;;;;;;14.83;91.56;101749.03;5077178;28;20366;-77
2022/08/21 05:11:11;;;;;;;17.48;4.47;;;;;;;14.89;91.04;101754.59;5095784;28;20496;-77
2022/08/21 05:13:36;;;;;;;14.80;4.10;;;;;;;14.90;90.93;101752.69;5076013;28;20040;-76
2022/08/21 05:16:02;;;;;;;13.43;4.83;;;;;;;14.97;91.04;101757.19;5110101;28;20047;-77
2022/08/21 05:18:28;;;;;;;10.77;4.20;;;;;;;14.98;91.01;101756.13;5086338;28;20024;-77
2022/08/21 05:20:53;;;;;;;17.50;4.20;;;;;;;15.02;91.21;101762.09;5092070;28;20387;-77
2022/08/21 05:23:18;;;;;;;15.27;4.47;;;;;;;14.99;91.04;101754.25;5106614;28;20027;-78
2022/08/21 05:25:44;;;;;;;15.63;4.53;;;;;;;15.13;90.32;101750.47;5108785;28;20028;-77
2022/08/21 05:28:10;;;;;;;23.80;5.23;;;;;;;15.21;90.36;101766.88;5107344;28;20027;-77
2022/08/21 05:30:36;;;;;;;20.60;4.43;;;;;;;15.20;90.09;101759.66;5090538;28;20141;-76
2022/08/21 05:33:03;;;;;;;13.10;5.30;;;;;;;15.19;90.03;101758.78;5091628;28;20036;-76
2022/08/21 05:35:29;;;;;;;9.75;4.45;;;;;;;15.24;89.95;101758.16;5106148;28;20134;-77
2022/08/21 05:37:55;;;;;;;19.63;5.10;;;;;;;15.37;89.66;101761.03;5089683;28;20058;-76
2022/08/21 05:40:21;;;;;;;16.20;4.27;;;;;;;15.31;89.93;101764.59;5110050;28;20042;-76
2022/08/21 05:42:46;;;;;;;14.30;4.80;;;;;;;15.44;89.22;101765.53;5109298;28;20037;-77
2022/08/21 05:45:12;;;;;;;14.23;4.20;;;;;;;15.40;89.42;101767.00;5090699;28;20475;-78
2022/08/21 05:47:37;;;;;;;19.23;4.27;;;;;;;15.46;89.51;101768.06;5089781;28;20490;-77
2022/08/21 05:50:04;;;;;;;17.30;5.63;;;;;;;15.44;89.57;101772.94;5091263;28;20043;-77
2022/08/21 05:52:29;;;;;;;;;;;;;;;15.51;89.81;101766.41;5110000;28;21790;-77
2022/08/21 05:54:54;;;;;;;19.70;4.25;;;;;;;15.60;89.56;101769.81;5089766;28;19937;-76
2022/08/21 05:57:21;;;;;;;15.87;4.97;;;;;;;15.61;89.23;101764.09;5096737;28;20019;-77
2022/08/21 05:59:46;;;;;;;14.68;4.45;;;;;;;15.70;89.27;101762.81;5086130;28;20538;-76
2022/08/21 06:02:12;;;;;;;8.50;3.93;;;;;;;15.89;88.16;101759.28;5090241;28;20114;-78
2022/08/21 06:04:38;;;;;;;18.37;4.63;;;;;;;15.94;88.27;101759.50;5090740;28;20034;-77
2022/08/21 06:07:05;;;;;;;19.92;5.15;;;;;;;16.04;88.10;101764.59;5090538;28;20043;-77
2022/08/21 06:09:30;;;;;;;18.70;4.22;;;;;;;16.08;88.08;101766.75;5102007;28;20497;-77
2022/08/21 06:11:56;;;;;;;12.53;4.20;;;;;;;16.12;88.00;101761.66;5088337;28;20047;-77
2022/08/21 06:14:21;;;;;;;19.20;4.60;;;;;;;16.15;87.89;101770.38;5109572;28;20080;-76
2022/08/21 06:16:46;;;;;;;17.83;5.17;;;;;;;16.27;87.29;101774.19;5102923;28;20050;-76
2022/08/21 06:19:12;;;;;;;14.30;4.33;;;;;;;16.26;87.60;101772.50;5093303;28;20040;-77
2022/08/21 06:21:37;;;;;;;18.97;4.47;;;;;;;16.28;87.70;101773.13;5108820;28;20027;-76
2022/08/21 06:24:04;;;;;;;21.40;4.37;;;;;;;16.47;86.57;101768.72;5087164;28;20028;-77
2022/08/21 06:26:29;;;;;;;;;;;;;;;16.51;87.09;101765.31;5085979;28;20499;-77
2022/08/21 06:28:55;;;;;;;13.05;3.80;;;;;;;16.58;86.64;101766.16;5084682;28;20002;-77
2022/08/21 06:31:23;;;;;;;13.77;3.93;;;;;;;16.73;86.26;101755.72;5105484;28;20130;-81
2022/08/21 06:33:48;;;;;;;16.42;4.53;;;;;;;16.72;86.80;101769.75;5088678;28;20453;-81
2022/08/21 06:36:14;;;;;;;12.33;4.17;;;;;;;16.79;86.14;101765.94;5106784;28;20032;-79
2022/08/21 06:38:40;;;;;;;18.50;4.97;;;;;;;16.87;85.87;101762.09;5089441;28;20015;-79
2022/08/21 06:41:06;;;;;;;12.40;4.07;;;;;;;16.95;85.78;101767.38;5086015;28;20020;-80
2022/08/21 06:43:32;;;;;;;;;;;;;;;17.07;85.53;101763.72;5101039;28;20054;-80
2022/08/21 06:45:57;;;;;;;15.53;3.93;;;;;;;17.14;84.66;101760.94;5086406;28;19916;-79
2022/08/21 06:48:23;;;;;;;14.53;4.30;;;;;;;17.36;84.52;101760.44;5101614;28;20268;-78
2022/08/21 06:50:48;;;;;;;17.00;4.87;;;;;;;18.03;81.79;101754.34;5079666;28;20034;-77
2022/08/21 06:53:16;;;;;;;15.40;4.73;;;;;;;19.01;77.80;101755.22;5084349;28;20038;-78
2022/08/21 06:55:42;;;;;;;19.13;4.13;;;;;;;19.62;76.13;101761.53;5090343;28;20441;-77
2022/08/21 06:58:08;;;;;;;15.40;4.00;;;;;;;19.81;73.92;101767.91;5102449;28;20055;-80
2022/08/21 07:00:35;;;;;;;21.30;4.38;;;;;;;19.88;74.24;101763.09;5081388;28;20055;-80
2022/08/21 07:03:01;;;;;;;20.60;4.22;;;;;;;20.15;73.10;101758.88;5088954;28;20103;-80
2022/08/21 07:05:28;;;;;;;16.57;3.03;;;;;;;20.61;71.66;101754.25;5107223;28;20259;-80
2022/08/21 07:07:54;;;;;;;11.82;3.75;;;;;;;20.96;70.16;101762.66;5104347;28;20084;-78
2022/08/21 07:10:19;;;;;;;12.77;3.97;;;;;;;20.91;69.90;101757.78;5084031;28;20023;-75
2022/08/21 07:12:45;;;;;;;16.33;4.17;;;;;;;21.07;69.12;101757.06;5102244;28;20028;-77
2022/08/21 07:15:10;;;;;;;17.77;4.10;;;;;;;21.11;69.72;101755.47;5089522;28;20114;-76
2022/08/21 07:17:36;;;;;;;10.17;3.00;;;;;;;21.29;69.12;101758.09;5109021;28;20031;-76
2022/08/21 07:20:02;;;;;;;17.17;3.63;;;;;;;21.54;68.61;101755.88;5091420;28;20295;-76
2022/08/21 07:22:27;;;;;;;19.67;3.92;;;;;;;21.20;69.04;101758.75;5107775;28;20181;-75
2022/08/21 07:24:54;;;;;;;18.83;4.40;;;;;;;21.12;69.68;101754.38;5107453;28;20127;-75
2022/08/21 07:27:19;;;;;;;10.93;3.85;;;;;;;21.45;68.53;101762.09;5099188;28;20459;-76
2022/08/21 07:29:45;;;;;;;12.03;3.23;;;;;;;21.71;68.48;101758.78;5108036;28;20080;-76
2022/08/21 07:32:10;;;;;;;13.30;3.73;;;;;;;21.82;67.63;101758.72;5090959;28;20027;-76
2022/08/21 07:34:35;;;;;;;16.60;4.90;;;;;;;21.77;67.65;101774.53;5102070;28;20035;-76
2022/08/21 07:37:01;;;;;;;10.43;4.33;;;;;;;21.21;69.52;101764.06;5100373;28;20027;-76
2022/08/21 07:39:26;;;;;;;14.97;3.93;;;;;;;21.47;69.10;101759.91;5078870;28;20028;-78
2022/08/21 07:41:51;;;;;;;14.90;4.27;;;;;;;21.34;69.42;101762.97;5112567;28;20542;-75
2022/08/21 07:44:17;;;;;;;18.90;4.50;;;;;;;21.36;69.75;101774.72;5104566;28;20020;-76
2022/08/21 07:46:42;;;;;;;16.63;4.00;;;;;;;21.56;69.98;101764.00;5112791;28;20016;-76
2022/08/21 07:49:07;;;;;;;22.23;4.27;;;;;;;21.60;69.93;101765.22;5112705;28;20028;-75
2022/08/21 07:51:33;;;;;;;17.37;4.93;;;;;;;21.53;70.45;101764.47;5111889;28;20038;-76
2022/08/21 07:53:59;;;;;;;15.17;3.50;;;;;;;21.58;69.62;101761.81;5112595;28;20550;-76
2022/08/21 07:56:26;;;;;;;10.63;3.38;;;;;;;21.26;70.67;101768.91;5093986;28;20501;-77
2022/08/21 07:58:51;;;;;;;15.25;3.80;;;;;;;20.75;72.22;101766.84;5090894;28;20704;-75
2022/08/21 08:01:17;;;;;;;13.23;3.90;;;;;;;20.84;72.35;101776.53;5101644;28;20126;-76
2022/08/21 08:03:44;;;;;;;11.18;3.78;;;;;;;20.76;72.65;101774.09;5094123;28;20023;-76
2022/08/21 08:06:12;;;;;;;12.98;4.32;;;;;;;21.00;73.26;101766.63;5112577;28;20055;-80
2022/08/21 08:08:39;;;;;;;19.73;4.20;;;;;;;21.04;72.17;101767.84;5104010;28;20408;-78
2022/08/21 08:11:04;;;;;;;21.65;4.18;;;;;;;21.15;72.19;101769.78;5078997;28;20035;-78
2022/08/21 08:13:29;;;;;;;17.20;4.27;;;;;;;21.17;71.74;101773.16;5112283;28;20039;-78
2022/08/21 08:15:55;;;;;;;18.27;4.13;;;;;;;21.00;71.80;101763.84;5093492;28;20390;-78
2022/08/21 08:18:20;;;;;;;11.23;3.67;;;;;;;21.08;72.27;101772.69;5108316;28;20189;-78
2022/08/21 08:20:45;;;;;;;21.53;4.30;;;;;;;21.11;71.70;101769.41;5111795;28;20032;-78
2022/08/21 08:23:14;;;;;;;19.70;3.90;;;;;;;21.46;71.25;101772.16;5110409;28;20039;-79
2022/08/21 08:25:39;;;;;;;11.02;3.28;;;;;;;21.83;70.38;101771.56;5111349;28;20035;-78
2022/08/21 08:28:06;;;;;;;12.77;2.90;;;;;;;22.00;68.97;101763.25;5102296;28;20123;-78
2022/08/21 08:30:32;;;;;;;16.95;3.63;;;;;;;21.46;69.50;101772.97;5107171;28;20110;-78
2022/08/21 08:32:59;;;;;;;17.10;3.58;;;;;;;21.43;70.19;101765.13;5096005;28;20036;-78
2022/08/21 08:35:24;;;;;;;12.80;3.17;;;;;;;21.90;69.55;101751.88;5106452;28;20063;-79
2022/08/21 08:37:50;;;;;;;13.53;3.83;;;;;;;21.85;67.83;101757.38;5109628;28;20047;-78
2022/08/21 08:40:41;;;;;;;18.13;4.13;;;;;;;21.54;69.65;101766.16;5092809;28;20050;-78
2022/08/21 08:43:06;;;;;;;13.70;2.97;;;;;;;21.70;69.42;101757.06;5092918;28;20034;-78
2022/08/21 08:45:36;;;;;;;29.87;5.50;;;;;;;22.05;67.82;101761.41;5103581;28;20031;-75
2022/08/21 08:48:05;;;;;;;13.23;3.00;;;;;;;21.83;68.27;101754.81;5087110;28;20110;-78
2022/08/21 08:50:46;;;;;;;11.80;2.63;;;;;;;21.64;68.56;101750.50;5109964;28;20036;-77
2022/08/21 08:53:20;;;;;;;16.02;2.90;;;;;;;21.55;68.77;101763.13;5087109;28;20026;-77
2022/08/21 08:55:46;;;;;;;9.38;2.45;;;;;;;21.69;69.06;101753.44;5103711;28;20479;-77
2022/08/21 08:58:29;;;;;;;13.40;3.10;;;;;;;21.93;68.34;101759.78;5090340;28;20019;-77
2022/08/21 09:00:56;;;;;;;13.48;2.83;;;;;;;22.09;67.44;101750.59;5111670;28;20491;-77
2022/08/21 09:03:23;;;;;;;12.38;2.78;;;;;;;22.21;67.06;101755.03;5089425;28;20031;-78
2022/08/21 09:05:59;;;;;;;9.80;3.25;;;;;;;21.96;66.92;101760.13;5091750;28;20036;-79
2022/08/21 09:08:36;;;;;;;14.45;3.42;;;;;;;21.64;67.18;101758.03;5089544;28;20054;-77
2022/08/21 09:11:41;;;;;;;16.25;3.05;;;;;;;22.02;66.62;101752.66;5107641;28;20035;-77
2022/08/21 09:14:34;;;;;;;12.23;3.38;;;;;;;22.30;65.62;101749.88;5009552;28;20430;-78
2022/08/21 09:17:09;;;;;;;7.90;2.70;;;;;;;22.45;63.95;101750.13;5085040;28;20043;-77
2022/08/21 09:20:11;;;;;;;10.05;2.25;;;;;;;22.27;63.37;101751.22;5103810;28;20100;-77
2022/08/21 09:22:56;;;;;;;10.15;2.50;;;;;;;22.15;63.58;101753.19;5101949;28;20127;-77
2022/08/21 09:25:26;;;;;;;5.97;2.33;;;;;;;22.06;64.27;101743.56;5108446;28;20031;-76
2022/08/21 09:27:51;;;;;;;14.50;2.88;;;;;;;21.95;64.74;101741.69;5105896;28;20035;-77
2022/08/21 09:30:19;;;;;;;13.60;2.20;;;;;;;21.82;64.09;101755.09;5086126;28;20031;-79
2022/08/21 09:32:44;;;;;;;10.30;2.30;;;;;;;21.61;65.54;101755.75;5107091;28;20035;-77
2022/08/21 09:35:16;;;;;;;9.27;3.97;;;;;;;21.96;64.97;101751.75;5084146;28;20030;-78
2022/08/21 09:37:53;;;;;;;14.85;3.10;;;;;;;22.24;63.07;101746.13;5087757;28;20118;-77
2022/08/21 09:40:51;;;;;;;16.42;3.20;;;;;;;22.48;62.38;101764.47;5105480;28;20031;-78
2022/08/21 09:43:19;;;;;;;7.68;2.80;;;;;;;22.73;62.07;101753.69;5069075;28;20046;-77
2022/08/21 09:45:46;;;;;;;10.20;2.78;;;;;;;22.80;61.62;101751.59;5088742;28;20114;-77
2022/08/21 09:48:13;;;;;;;14.88;3.00;;;;;;;22.97;61.02;101752.41;5087423;28;20046;-77
2022/08/21 09:50:39;;;;;;;17.40;2.92;;;;;;;23.45;61.07;101737.72;5105088;28;20741;-78
2022/08/21 09:53:13;;;;;;;11.88;2.20;;;;;;;23.58;59.42;101746.56;5089992;28;20039;-79
2022/08/21 09:58:44;;;;;;;10.25;2.33;;;;;;;23.82;58.31;101752.72;5103660;28;20444;-79
2022/08/21 10:01:16;;;;;;;13.00;3.10;;;;;;;23.56;58.35;101756.31;5088577;28;20138;-77
2022/08/21 10:03:42;;;;;;;10.52;2.40;;;;;;;24.00;57.78;101744.03;5105114;28;20534;-78
2022/08/21 10:06:10;;;;;;;10.18;2.13;;;;;;;23.91;55.94;101754.00;5105476;28;20038;-79
2022/08/21 10:08:40;;;;;;;6.82;2.30;;;;;;;23.82;55.70;101748.00;5089411;28;20038;-78
2022/08/21 10:11:09;;;;;;;5.93;2.05;;;;;;;23.73;56.07;101748.69;5104658;28;20024;-77
2022/08/21 10:13:44;;;;;;;11.55;2.20;;;;;;;24.03;55.92;101743.50;5098686;28;20395;-78
2022/08/21 10:16:21;;;;;;;13.23;2.65;;;;;;;24.23;55.28;101746.50;5103776;28;20038;-78
2022/08/21 10:19:02;;;;;;;14.07;2.10;;;;;;;24.03;55.52;101746.28;5088083;28;20123;-78
2022/08/21 10:21:37;;;;;;;4.68;1.60;;;;;;;23.76;56.28;101746.25;5084559;28;20088;-78
2022/08/21 10:24:23;;;;;;;7.20;1.90;;;;;;;23.77;55.47;101745.13;5104524;28;20093;-76
2022/08/21 10:27:00;;;;;;;5.75;1.67;;;;;;;23.91;55.20;101749.22;5086866;28;20051;-77
2022/08/21 10:29:38;;;;;;;10.93;2.70;;;;;;;24.36;52.77;101746.91;5102308;28;20462;-75
2022/08/21 10:32:08;;;;;;;8.75;1.80;;;;;;;24.34;52.55;101739.88;5084646;28;20093;-77
2022/08/21 10:34:49;;;;;;;10.43;2.60;;;;;;;24.69;52.97;101741.06;5084926;28;20543;-76
2022/08/21 10:37:43;;;;;;;10.90;2.55;;;;;;;24.76;52.29;101740.84;5102909;28;20028;-78
2022/08/21 10:40:17;;;;;;;9.02;1.92;;;;;;;25.04;51.80;101741.31;5091100;28;20126;-77
2022/08/21 10:43:14;;;;;;;8.77;1.90;;;;;;;24.93;50.31;101727.50;5102725;28;20062;-76
2022/08/21 10:46:03;;;;;;;6.80;1.50;;;;;;;25.06;48.42;101730.66;5106370;28;20024;-76
2022/08/21 10:48:52;;;;;;;8.80;1.63;;;;;;;25.03;45.91;101719.16;5105064;28;20023;-76
2022/08/21 10:51:27;;;;;;;6.32;1.58;;;;;;;25.57;46.22;101720.56;5088530;28;20079;-77
2022/08/21 10:54:32;;;;;;;5.20;1.83;;;;;;;25.91;45.04;101728.28;5102256;28;20086;-76
2022/08/21 10:57:05;;;;;;;9.93;2.17;;;;;;;25.88;45.80;101726.00;5099824;28;20061;-75
2022/08/21 10:59:41;;;;;;;7.63;2.40;;;;;;;25.83;43.31;101730.78;5087175;28;20323;-77
2022/08/21 11:02:45;;;;;;;9.40;1.95;;;;;;;26.12;45.24;101718.78;5086701;28;20383;-77
2022/08/21 11:05:11;;;;;;;5.63;1.50;;;;;;;26.28;43.93;101728.06;5065311;28;20043;-77
2022/08/21 11:07:46;;;;;;;7.47;1.90;;;;;;;25.83;42.99;101734.41;5082862;28;20079;-76
2022/08/21 11:10:19;;;;;;;5.72;1.92;;;;;;;26.12;43.71;101720.75;5097992;28;20032;-77
2022/08/21 11:13:03;;;;;;;8.60;1.90;;;;;;;26.69;43.17;101727.84;5084449;28;20047;-77
2022/08/21 11:15:43;;;;;;;4.85;1.40;;;;;;;26.23;42.22;101726.09;5107191;28;20051;-77
2022/08/21 11:18:18;;;;;;;7.47;1.77;;;;;;;26.35;42.88;101734.28;5107792;28;20483;-78
2022/08/21 11:20:54;;;;;;;9.05;2.05;;;;;;;25.21;45.70;101744.78;5085698;28;20028;-79
2022/08/21 11:23:31;;;;;;;9.60;1.95;;;;;;;25.04;47.97;101737.66;5090667;28;20039;-76
2022/08/21 11:26:07;;;;;;;9.48;1.67;;;;;;;25.62;45.86;101734.63;5091336;28;20059;-78
2022/08/21 11:28:52;;;;;;;8.48;1.73;;;;;;;25.91;44.90;101733.91;5109867;28;20089;-76
2022/08/21 11:31:34;;;;;;;4.93;1.92;;;;;;;25.85;43.21;101725.72;5088732;28;20028;-76